Time;durP1;ratioP1;P1;durP2;ratioP2;P2;SDS_P1;SDS_P2;PMS_P1;PMS_P2;Temp;Humidity;BMP_temperature;BMP_pressure;BME280_temperature;BME280_humidity;BME280_pressure;Samples;Min_cycle;Max_cycle;Signal;HPM_P1;HPM_P2
2022/06/24 00:02:20;;;;;;;3.33;2.80;;;20.50;99.90;;;;;;5083436;28;20483;-53
2022/06/24 00:04:51;;;;;;;1.60;1.43;;;20.60;99.90;;;;;;5086145;28;20968;-51
2022/06/24 00:07:18;;;;;;;2.40;1.60;;;20.50;99.90;;;;;;5081542;28;20471;-51
2022/06/24 00:09:45;;;;;;;2.57;2.37;;;20.40;99.90;;;;;;5087064;28;20468;-51
2022/06/24 00:12:16;;;;;;;3.40;2.20;;;20.40;99.90;;;;;;5083410;28;20586;-53
2022/06/24 00:14:46;;;;;;;1.80;1.73;;;20.30;99.90;;;;;;5082925;28;20457;-52
2022/06/24 00:17:14;;;;;;;2.37;2.17;;;20.30;99.90;;;;;;5094559;28;20848;-51
2022/06/24 00:19:55;;;;;;;5.13;1.90;;;20.20;99.90;;;;;;5089345;28;20456;-52
2022/06/24 00:22:22;;;;;;;2.00;1.90;;;20.20;99.90;;;;;;5088128;28;20545;-52
2022/06/24 00:24:49;;;;;;;2.83;1.83;;;20.20;99.90;;;;;;5079882;28;20460;-51
2022/06/24 00:27:22;;;;;;;2.10;2.00;;;20.10;99.90;;;;;;5091883;28;20529;-52
2022/06/24 00:29:50;;;;;;;4.00;2.10;;;20.10;99.90;;;;;;5086406;28;20456;-52
2022/06/24 00:32:29;;;;;;;2.33;2.13;;;20.10;99.90;;;;;;5085154;28;20519;-52
2022/06/24 00:35:03;;;;;;;3.30;1.93;;;20.00;99.90;;;;;;5085441;28;20468;-53
2022/06/24 00:37:31;;;;;;;4.17;1.93;;;20.00;99.90;;;;;;5090659;28;20509;-52
2022/06/24 00:40:00;;;;;;;8.83;1.90;;;20.00;99.90;;;;;;5088089;28;20465;-51
2022/06/24 00:42:30;;;;;;;2.37;2.17;;;19.90;99.90;;;;;;5086486;28;21058;-53
2022/06/24 00:45:09;;;;;;;2.13;1.80;;;19.90;99.90;;;;;;5086215;28;20827;-51
2022/06/24 00:47:37;;;;;;;4.20;2.00;;;19.90;99.90;;;;;;5082934;28;20541;-51
2022/06/24 00:50:16;;;;;;;4.27;2.37;;;19.80;99.90;;;;;;5086077;28;21116;-53
2022/06/24 00:52:45;;;;;;;11.97;2.27;;;19.80;99.90;;;;;;5087277;28;20490;-51
2022/06/24 00:55:11;;;;;;;3.97;2.17;;;19.70;99.80;;;;;;5082297;28;20528;-52
2022/06/24 00:57:39;;;;;;;2.00;1.90;;;19.70;98.90;;;;;;5086850;28;20483;-52
2022/06/24 01:00:07;;;;;;;2.37;2.17;;;19.70;96.80;;;;;;5087157;28;20839;-51
2022/06/24 01:02:34;;;;;;;2.17;1.93;;;19.70;97.00;;;;;;5083288;28;21069;-53
2022/06/24 01:05:05;;;;;;;2.27;2.17;;;19.70;95.30;;;;;;5087019;28;20457;-50
2022/06/24 01:07:36;;;;;;;3.40;2.27;;;19.60;94.50;;;;;;5084174;28;20482;-50
2022/06/24 01:10:02;;;;;;;2.20;2.10;;;19.60;95.10;;;;;;5081258;28;20460;-50
2022/06/24 01:12:31;;;;;;;2.23;2.13;;;19.60;91.60;;;;;;5088946;28;20479;-51
2022/06/24 01:14:59;;;;;;;4.00;2.20;;;19.50;94.40;;;;;;5085074;28;20452;-50
2022/06/24 01:17:26;;;;;;;2.00;1.90;;;19.50;95.40;;;;;;5081472;28;20523;-51
2022/06/24 01:19:53;;;;;;;3.10;2.00;;;19.50;94.80;;;;;;5075371;28;20886;-50
2022/06/24 01:22:21;;;;;;;2.50;2.30;;;19.40;94.90;;;;;;5087224;28;20489;-52
2022/06/24 01:24:48;;;;;;;4.60;2.50;;;19.40;94.40;;;;;;5084294;28;20490;-52
2022/06/24 01:27:15;;;;;;;11.07;2.67;;;19.40;94.60;;;;;;5084274;28;20974;-51
2022/06/24 01:29:41;;;;;;;13.07;2.40;;;19.40;93.20;;;;;;5090721;28;20984;-51
2022/06/24 01:32:08;;;;;;;2.67;2.33;;;19.40;94.70;;;;;;5080569;28;20950;-51
2022/06/24 01:34:35;;;;;;;2.50;2.30;;;19.40;92.40;;;;;;5086180;28;20459;-53
2022/06/24 01:37:03;;;;;;;5.13;2.47;;;19.30;93.50;;;;;;5082993;28;20614;-51
2022/06/24 01:39:31;;;;;;;1.97;1.87;;;19.30;94.40;;;;;;5084443;28;20480;-52
2022/06/24 01:41:58;;;;;;;2.43;2.33;;;19.30;93.20;;;;;;5085666;28;20476;-51
2022/06/24 01:44:25;;;;;;;4.63;2.90;;;19.20;93.00;;;;;;5086446;28;20495;-52
2022/06/24 01:46:52;;;;;;;2.40;2.10;;;19.30;90.90;;;;;;5085504;28;20459;-51
2022/06/24 01:49:19;;;;;;;2.57;2.37;;;19.20;91.30;;;;;;5084173;28;20486;-51
2022/06/24 01:51:48;;;;;;;7.43;2.40;;;19.20;88.10;;;;;;5081648;28;20513;-51
2022/06/24 01:54:15;;;;;;;2.53;2.20;;;19.10;87.70;;;;;;5082075;28;20546;-52
2022/06/24 01:56:43;;;;;;;6.23;2.33;;;19.00;89.80;;;;;;5082266;28;20895;-51
2022/06/24 01:59:09;;;;;;;43.97;3.30;;;19.10;88.60;;;;;;5086346;28;20981;-51
2022/06/24 02:01:36;;;;;;;4.97;2.40;;;19.00;89.60;;;;;;5082868;28;21394;-50
2022/06/24 02:04:03;;;;;;;2.23;2.13;;;19.00;91.60;;;;;;5083965;28;20456;-52
2022/06/24 02:06:29;;;;;;;3.50;2.50;;;19.00;89.50;;;;;;5085162;28;20492;-51
2022/06/24 02:08:56;;;;;;;4.30;2.23;;;19.00;91.80;;;;;;5086236;28;20949;-51
2022/06/24 02:14:10;;;;;;;3.10;2.70;;;18.90;91.50;;;;;;5093116;28;20867;-53
2022/06/24 02:16:37;;;;;;;3.10;2.43;;;18.90;90.40;;;;;;5083004;28;20466;-51
2022/06/24 02:19:05;;;;;;;3.70;2.40;;;18.90;91.90;;;;;;5087555;28;20487;-52
2022/06/24 02:21:32;;;;;;;2.53;2.33;;;18.90;91.40;;;;;;5082972;28;20561;-52
2022/06/24 02:23:59;;;;;;;3.90;2.83;;;18.80;92.00;;;;;;5098889;22;20561;-49
2022/06/24 02:26:26;;;;;;;3.07;2.80;;;18.90;91.90;;;;;;5085225;28;20833;-49
2022/06/24 02:28:52;;;;;;;3.40;2.73;;;18.80;92.10;;;;;;5082493;28;20945;-48
2022/06/24 02:31:21;;;;;;;2.90;2.30;;;18.80;94.90;;;;;;5085541;28;20537;-48
2022/06/24 02:33:47;;;;;;;15.13;3.00;;;18.80;96.70;;;;;;5081860;28;20480;-49
2022/06/24 02:36:15;;;;;;;5.30;2.83;;;18.90;99.40;;;;;;5065906;28;20857;-48
2022/06/24 02:38:41;;;;;;;11.17;2.93;;;18.90;99.90;;;;;;5069994;28;20515;-48
2022/06/24 02:41:09;;;;;;;11.20;2.53;;;18.90;99.80;;;;;;5057959;28;20554;-49
2022/06/24 02:43:39;;;;;;;3.07;2.50;;;18.90;99.90;;;;;;5069474;28;20457;-50
2022/06/24 02:46:07;;;;;;;4.13;2.90;;;19.00;99.90;;;;;;5063239;28;20545;-48
2022/06/24 02:48:37;;;;;;;3.87;2.30;;;18.90;99.90;;;;;;5063529;28;20946;-48
2022/06/24 02:51:06;;;;;;;3.10;2.80;;;19.00;99.90;;;;;;5067394;28;20453;-49
2022/06/24 02:53:33;;;;;;;2.27;2.13;;;18.90;99.90;;;;;;5074839;28;20515;-50
2022/06/24 02:56:02;;;;;;;4.13;2.70;;;19.00;99.90;;;;;;5072855;28;20573;-48
2022/06/24 02:58:30;;;;;;;3.30;2.73;;;18.90;99.90;;;;;;5075589;28;20969;-48
2022/06/24 03:00:56;;;;;;;2.30;2.10;;;18.90;99.90;;;;;;5067828;28;20552;-48
2022/06/24 03:03:24;;;;;;;3.40;3.10;;;18.90;99.90;;;;;;5076344;28;20860;-49
2022/06/24 03:05:52;;;;;;;5.53;3.20;;;18.90;99.90;;;;;;5071781;28;20508;-48
2022/06/24 03:11:40;;;;;;;4.17;2.40;;;18.90;99.90;;;;;;5065001;28;20523;-48
2022/06/24 03:14:07;;;;;;;9.40;3.00;;;19.00;99.90;;;;;;5069432;28;20555;-50
2022/06/24 03:16:33;;;;;;;3.73;2.80;;;19.00;99.90;;;;;;5066234;28;20504;-48
2022/06/24 03:19:00;;;;;;;2.83;2.63;;;19.00;99.90;;;;;;5066231;28;20977;-48
2022/06/24 03:21:28;;;;;;;7.60;2.97;;;19.00;99.90;;;;;;5075512;28;20539;-48
2022/06/24 03:23:54;;;;;;;4.80;3.30;;;19.00;99.90;;;;;;5071287;28;20500;-48
2022/06/24 03:26:21;;;;;;;3.03;2.80;;;19.00;99.90;;;;;;5066022;28;20499;-49
2022/06/24 03:28:47;;;;;;;4.00;2.47;;;19.00;99.90;;;;;;5069304;28;20551;-48
2022/06/24 03:31:14;;;;;;;4.30;2.40;;;19.00;99.90;;;;;;5069656;28;20560;-49
2022/06/24 03:33:41;;;;;;;4.17;2.50;;;19.00;99.90;;;;;;5075451;28;20579;-49
2022/06/24 03:36:11;;;;;;;3.57;3.20;;;19.10;99.90;;;;;;5068726;28;20905;-49
2022/06/24 03:38:39;;;;;;;4.07;3.30;;;19.10;99.90;;;;;;5068221;28;20985;-50
2022/06/24 03:41:05;;;;;;;2.80;2.60;;;19.10;99.90;;;;;;5071054;28;20506;-49
2022/06/24 03:43:32;;;;;;;5.90;2.90;;;19.20;99.90;;;;;;5071687;28;20553;-51
2022/06/24 03:46:02;;;;;;;5.87;3.40;;;19.20;99.90;;;;;;5067703;28;20512;-49
2022/06/24 03:48:29;;;;;;;6.67;3.60;;;19.20;99.90;;;;;;5066268;28;20548;-49
2022/06/24 03:50:55;;;;;;;5.37;3.37;;;19.30;99.90;;;;;;5062018;28;20553;-49
2022/06/24 03:53:22;;;;;;;3.70;3.40;;;19.30;99.90;;;;;;5068793;28;20571;-49
2022/06/24 03:55:50;;;;;;;6.10;2.80;;;19.40;99.90;;;;;;5063545;28;21120;-50
2022/06/24 03:58:17;;;;;;;3.00;2.80;;;19.40;99.90;;;;;;5071289;28;20551;-49
2022/06/24 04:00:43;;;;;;;6.63;3.30;;;19.40;99.90;;;;;;5068159;28;20458;-49
2022/06/24 04:03:10;;;;;;;8.93;4.00;;;19.40;99.90;;;;;;5070835;28;20477;-48
2022/06/24 04:05:37;;;;;;;3.27;3.07;;;19.50;99.90;;;;;;5068533;28;20473;-49
2022/06/24 04:08:04;;;;;;;5.03;3.03;;;19.50;99.90;;;;;;5060272;28;20547;-49
2022/06/24 04:10:31;;;;;;;4.33;3.00;;;19.50;99.90;;;;;;5071178;28;20488;-50
2022/06/24 04:12:58;;;;;;;6.63;3.50;;;19.60;99.90;;;;;;5061154;28;21081;-49
2022/06/24 04:15:25;;;;;;;10.70;3.57;;;19.60;99.90;;;;;;5065668;28;20508;-50
2022/06/24 04:17:51;;;;;;;4.83;3.47;;;19.70;99.90;;;;;;5061614;28;20514;-50
2022/06/24 04:20:19;;;;;;;6.50;3.77;;;19.70;99.90;;;;;;5067066;28;20514;-50
2022/06/24 04:22:46;;;;;;;7.57;3.80;;;19.70;99.90;;;;;;5068199;28;20456;-49
2022/06/24 04:25:12;;;;;;;3.43;3.13;;;19.80;99.90;;;;;;5065260;28;20516;-49
2022/06/24 04:27:39;;;;;;;7.50;4.00;;;19.80;99.90;;;;;;5070988;28;20492;-49
2022/06/24 04:30:09;;;;;;;7.30;3.53;;;19.90;99.90;;;;;;5071127;28;20979;-49
2022/06/24 04:32:36;;;;;;;8.40;3.90;;;19.90;99.90;;;;;;5064928;28;20969;-50
2022/06/24 04:35:03;;;;;;;3.87;3.57;;;19.90;99.90;;;;;;5067411;28;20604;-49
2022/06/24 04:37:29;;;;;;;3.57;3.00;;;20.00;99.90;;;;;;5070835;28;20484;-49
2022/06/24 04:39:57;;;;;;;9.20;2.93;;;20.00;99.90;;;;;;5064256;28;20461;-50
2022/06/24 04:42:23;;;;;;;3.90;3.33;;;20.10;99.90;;;;;;5065462;28;20492;-50
2022/06/24 04:44:50;;;;;;;12.23;3.47;;;20.10;99.90;;;;;;5065645;28;20499;-50
2022/06/24 04:47:19;;;;;;;4.43;3.30;;;20.20;99.90;;;;;;5062804;28;20453;-51
2022/06/24 04:49:45;;;;;;;6.03;3.20;;;20.20;99.90;;;;;;5065266;28;20547;-50
2022/06/24 04:52:12;;;;;;;9.77;2.70;;;20.30;99.90;;;;;;5068754;28;20485;-51
2022/06/24 04:54:38;;;;;;;4.43;3.30;;;20.30;99.90;;;;;;5070649;28;20515;-51
2022/06/24 04:57:06;;;;;;;4.97;2.90;;;20.30;99.90;;;;;;5070090;28;20496;-50
2022/06/24 04:59:32;;;;;;;4.23;3.23;;;20.40;99.90;;;;;;5063863;28;20902;-50
2022/06/24 05:01:59;;;;;;;6.20;3.60;;;20.50;99.90;;;;;;5064568;28;20505;-50
2022/06/24 05:04:27;;;;;;;13.20;3.37;;;20.50;99.90;;;;;;5071892;28;20515;-55
2022/06/24 05:06:53;;;;;;;8.77;3.30;;;20.50;99.90;;;;;;5068739;28;20493;-50
2022/06/24 05:09:20;;;;;;;7.40;3.53;;;20.60;99.90;;;;;;5075275;28;20444;-50
2022/06/24 05:11:48;;;;;;;4.60;3.40;;;20.60;99.90;;;;;;5064345;28;20556;-50
2022/06/24 05:14:15;;;;;;;5.87;2.73;;;20.70;99.90;;;;;;5068199;28;20520;-50
2022/06/24 05:16:42;;;;;;;3.40;3.03;;;20.80;99.90;;;;;;5065297;28;20493;-50
2022/06/24 05:19:09;;;;;;;3.97;3.43;;;20.80;99.90;;;;;;5066723;28;20537;-50
2022/06/24 05:21:37;;;;;;;7.10;3.43;;;20.90;99.90;;;;;;5067287;28;20867;-50
2022/06/24 05:24:04;;;;;;;6.00;3.20;;;21.00;99.90;;;;;;5065142;28;20564;-50
2022/06/24 05:26:30;;;;;;;6.50;3.87;;;21.00;99.90;;;;;;5063876;28;20500;-50
2022/06/24 05:28:57;;;;;;;5.23;3.37;;;21.10;99.90;;;;;;5068504;28;20495;-51
2022/06/24 05:31:23;;;;;;;5.73;3.00;;;21.10;99.90;;;;;;5064892;28;20514;-50
2022/06/24 05:33:50;;;;;;;4.50;3.27;;;21.20;99.90;;;;;;5066155;28;20564;-50
2022/06/24 05:36:17;;;;;;;6.93;3.53;;;21.20;99.90;;;;;;5063273;28;20547;-49
2022/06/24 05:38:46;;;;;;;15.73;4.07;;;21.20;99.90;;;;;;5057042;28;20456;-50
2022/06/24 05:41:12;;;;;;;6.30;3.33;;;21.30;99.90;;;;;;5060155;28;20476;-50
2022/06/24 05:43:39;;;;;;;4.83;2.83;;;21.40;99.90;;;;;;5062022;28;20485;-50
2022/06/24 05:46:06;;;;;;;4.23;3.30;;;21.40;99.90;;;;;;5060088;28;22205;-49
2022/06/24 05:48:32;;;;;;;3.63;3.43;;;21.50;99.90;;;;;;5058461;28;20907;-51
2022/06/24 05:50:59;;;;;;;3.33;3.13;;;21.50;99.90;;;;;;5059640;28;20958;-50
2022/06/24 05:56:11;;;;;;;7.20;2.83;;;21.60;99.90;;;;;;5063556;28;20456;-50
2022/06/24 05:58:38;;;;;;;5.03;3.20;;;21.80;99.90;;;;;;5059828;28;20814;-50
2022/06/24 06:01:10;;;;;;;3.70;3.33;;;21.80;99.90;;;;;;5062705;28;20485;-49
2022/06/24 06:03:37;;;;;;;20.03;3.00;;;21.90;99.90;;;;;;5066067;28;20511;-50
2022/06/24 06:06:04;;;;;;;3.10;2.70;;;22.10;99.90;;;;;;5063821;28;20588;-50
2022/06/24 06:08:30;;;;;;;4.47;3.17;;;22.10;99.90;;;;;;5062781;28;20532;-51
2022/06/24 06:10:57;;;;;;;4.80;3.70;;;22.20;99.90;;;;;;5060612;28;20481;-50
2022/06/24 06:13:25;;;;;;;5.40;2.93;;;22.30;99.90;;;;;;5060034;28;20477;-50
2022/06/24 06:15:51;;;;;;;4.93;3.00;;;22.30;99.90;;;;;;5063376;28;20507;-50
2022/06/24 06:18:18;;;;;;;12.63;3.97;;;22.40;99.90;;;;;;5058906;28;20465;-50
2022/06/24 06:20:45;;;;;;;5.30;2.90;;;22.50;99.90;;;;;;5063070;28;20489;-50
2022/06/24 06:23:12;;;;;;;7.77;3.27;;;22.60;99.90;;;;;;5061728;28;20481;-50
2022/06/24 06:25:38;;;;;;;3.80;3.50;;;22.60;99.90;;;;;;5061547;28;20481;-50
2022/06/24 06:28:06;;;;;;;7.00;3.70;;;22.80;99.90;;;;;;5058618;28;20527;-51
2022/06/24 06:30:34;;;;;;;4.00;2.90;;;22.90;99.90;;;;;;5057703;28;20467;-51
2022/06/24 06:33:00;;;;;;;3.70;3.40;;;23.00;99.90;;;;;;5055058;28;20916;-50
2022/06/24 06:35:27;;;;;;;6.27;3.03;;;23.20;99.90;;;;;;5058226;28;20516;-51
2022/06/24 06:37:54;;;;;;;16.43;3.60;;;23.30;99.90;;;;;;5063721;28;20548;-50
2022/06/24 06:40:20;;;;;;;9.03;2.90;;;23.30;99.90;;;;;;5058785;28;20497;-50
2022/06/24 06:42:50;;;;;;;3.67;3.30;;;23.40;99.90;;;;;;5055955;28;20962;-50
2022/06/24 06:45:17;;;;;;;11.03;3.10;;;23.60;99.90;;;;;;5063549;28;20476;-49
2022/06/24 06:47:45;;;;;;;7.07;2.67;;;23.80;99.90;;;;;;5059273;28;20988;-49
2022/06/24 06:50:11;;;;;;;7.83;2.90;;;23.80;99.90;;;;;;5057117;28;20922;-51
2022/06/24 06:52:38;;;;;;;5.43;3.47;;;23.90;99.90;;;;;;5070176;28;21010;-50
2022/06/24 06:55:05;;;;;;;3.70;2.77;;;23.90;99.90;;;;;;5071386;28;20516;-51
2022/06/24 06:57:32;;;;;;;10.67;3.20;;;24.00;99.90;;;;;;5069773;28;20469;-49
2022/06/24 06:59:58;;;;;;;8.00;3.40;;;24.10;99.90;;;;;;5060274;28;20500;-50
2022/06/24 07:02:25;;;;;;;8.97;3.00;;;24.40;99.90;;;;;;5062902;28;20557;-50
2022/06/24 07:04:53;;;;;;;7.67;3.37;;;24.40;99.90;;;;;;5064045;28;20505;-50
2022/06/24 07:07:19;;;;;;;3.33;3.03;;;24.50;99.90;;;;;;5061200;28;20489;-50
2022/06/24 07:09:46;;;;;;;5.47;2.80;;;24.50;99.90;;;;;;5061063;28;20491;-49
2022/06/24 07:12:13;;;;;;;6.53;3.97;;;24.60;99.90;;;;;;5060452;28;20596;-50
2022/06/24 07:14:41;;;;;;;3.03;2.73;;;24.70;99.90;;;;;;5065012;28;21004;-50
2022/06/24 07:17:07;;;;;;;3.00;2.70;;;24.80;99.90;;;;;;5060154;28;20595;-50
2022/06/24 07:19:34;;;;;;;3.97;2.57;;;24.90;99.90;;;;;;5060118;28;20500;-50
2022/06/24 07:22:02;;;;;;;7.90;3.00;;;24.90;99.90;;;;;;5056026;28;20493;-50
2022/06/24 07:24:28;;;;;;;2.67;2.57;;;25.00;99.90;;;;;;5069441;28;20515;-50
2022/06/24 07:26:55;;;;;;;6.10;3.40;;;25.10;99.90;;;;;;5062914;28;20523;-50
2022/06/24 07:29:21;;;;;;;6.10;2.90;;;25.10;99.90;;;;;;5060180;28;20981;-50
2022/06/24 07:31:48;;;;;;;5.90;2.57;;;25.20;99.90;;;;;;5064000;28;20537;-50
2022/06/24 07:34:16;;;;;;;4.17;2.63;;;25.30;99.90;;;;;;5061394;28;20509;-50
2022/06/24 07:36:42;;;;;;;3.63;2.60;;;25.40;99.90;;;;;;5064088;28;20507;-51
2022/06/24 07:39:10;;;;;;;4.30;2.53;;;25.50;99.90;;;;;;5063061;28;20586;-50
2022/06/24 07:41:37;;;;;;;6.20;2.50;;;25.60;99.90;;;;;;5060765;28;20480;-50
2022/06/24 07:44:04;;;;;;;10.63;2.40;;;25.70;99.90;;;;;;5066502;28;20520;-51
2022/06/24 07:46:31;;;;;;;3.80;2.60;;;25.80;99.90;;;;;;5063606;28;20469;-50
2022/06/24 07:48:57;;;;;;;6.90;2.50;;;25.80;99.90;;;;;;5066662;28;20495;-50
2022/06/24 07:51:24;;;;;;;6.83;3.10;;;25.90;99.90;;;;;;5062948;28;20491;-49
2022/06/24 07:53:50;;;;;;;8.10;2.47;;;26.00;99.90;;;;;;5064366;28;20456;-50
2022/06/24 07:59:03;;;;;;;10.73;3.00;;;26.20;99.90;;;;;;5063119;28;20501;-50
2022/06/24 08:01:30;;;;;;;7.00;2.90;;;26.30;99.90;;;;;;5064166;28;20491;-50
2022/06/24 08:03:56;;;;;;;6.37;2.90;;;26.40;99.90;;;;;;5065845;28;20480;-50
2022/06/24 08:06:23;;;;;;;5.53;2.50;;;26.50;99.90;;;;;;5063905;28;20488;-51
2022/06/24 08:08:50;;;;;;;5.20;2.80;;;26.50;99.90;;;;;;5067512;28;20512;-50
2022/06/24 08:11:18;;;;;;;6.57;3.07;;;26.60;99.90;;;;;;5064217;28;22500;-51
2022/06/24 08:13:45;;;;;;;4.00;1.97;;;26.80;99.90;;;;;;5063646;28;20486;-50
2022/06/24 08:16:11;;;;;;;2.90;2.37;;;26.90;99.90;;;;;;5065147;28;20512;-50
2022/06/24 08:18:38;;;;;;;10.17;2.73;;;27.00;99.90;;;;;;5064195;28;20489;-50
2022/06/24 08:21:04;;;;;;;4.47;2.33;;;27.10;99.90;;;;;;5065170;28;20500;-50
2022/06/24 08:23:31;;;;;;;5.43;2.20;;;27.20;99.90;;;;;;5071028;28;20484;-50
2022/06/24 08:25:57;;;;;;;4.30;2.00;;;27.30;99.90;;;;;;5068549;28;20512;-50
2022/06/24 08:28:25;;;;;;;5.73;2.03;;;27.30;99.90;;;;;;5066059;28;20493;-50
2022/06/24 08:30:52;;;;;;;5.53;2.70;;;27.30;99.90;;;;;;5069663;28;20487;-50
2022/06/24 08:33:19;;;;;;;5.00;2.70;;;27.40;99.90;;;;;;5064516;28;20549;-51
2022/06/24 08:35:45;;;;;;;4.00;1.93;;;27.50;99.90;;;;;;5062461;28;20477;-50
2022/06/24 08:38:13;;;;;;;4.27;2.40;;;27.70;99.90;;;;;;5059179;28;20564;-51
2022/06/24 08:40:40;;;;;;;4.90;1.97;;;27.70;99.90;;;;;;5061440;28;20468;-50
2022/06/24 08:43:07;;;;;;;2.70;1.97;;;27.80;99.90;;;;;;5059460;28;20500;-50
2022/06/24 08:45:36;;;;;;;2.57;2.30;;;27.80;99.90;;;;;;5060332;28;20511;-51
2022/06/24 08:48:07;;;;;;;3.93;2.83;;;28.00;99.90;;;;;;5062827;28;20492;-50
2022/06/24 08:50:33;;;;;;;5.73;2.00;;;28.10;99.90;;;;;;5062297;28;20617;-51
2022/06/24 08:53:05;;;;;;;5.23;1.93;;;28.20;99.90;;;;;;5066834;28;20457;-50
2022/06/24 08:55:35;;;;;;;5.60;2.20;;;28.20;99.90;;;;;;5063621;28;20588;-50
2022/06/24 08:58:06;;;;;;;4.30;1.93;;;28.30;99.90;;;;;;5062590;28;20544;-49
2022/06/24 09:00:34;;;;;;;5.03;2.07;;;28.40;99.90;;;;;;5060991;28;20504;-50
2022/06/24 09:03:01;;;;;;;4.43;2.00;;;28.40;99.90;;;;;;5066694;28;20489;-50
2022/06/24 09:05:28;;;;;;;1.97;1.87;;;28.30;99.90;;;;;;5064009;28;20477;-49
2022/06/24 09:07:58;;;;;;;2.07;1.90;;;28.50;99.90;;;;;;5062356;28;20485;-50
2022/06/24 09:10:24;;;;;;;2.93;2.17;;;28.70;99.90;;;;;;5057129;28;20468;-50
2022/06/24 09:12:53;;;;;;;5.90;2.00;;;28.80;99.90;;;;;;5061625;28;20497;-51
2022/06/24 09:15:19;;;;;;;2.87;2.27;;;28.80;99.90;;;;;;5062202;28;20485;-51
2022/06/24 09:17:47;;;;;;;11.83;1.93;;;28.80;99.90;;;;;;5062916;28;20547;-50
2022/06/24 09:20:16;;;;;;;2.53;2.33;;;28.90;99.90;;;;;;5065828;28;20540;-51
2022/06/24 09:22:43;;;;;;;9.43;2.63;;;29.00;99.90;;;;;;5059434;28;20874;-51
2022/06/24 09:25:10;;;;;;;3.90;2.90;;;29.10;99.90;;;;;;5059508;28;20568;-49
2022/06/24 09:27:43;;;;;;;4.90;3.20;;;29.00;99.90;;;;;;5065536;28;20496;-50
2022/06/24 09:30:11;;;;;;;3.07;2.30;;;29.00;99.90;;;;;;5060580;28;20458;-50
2022/06/24 09:32:51;;;;;;;11.90;3.10;;;28.90;99.90;;;;;;5062366;28;20545;-50
2022/06/24 09:35:18;;;;;;;3.30;2.67;;;29.00;99.90;;;;;;5059479;28;20481;-50
2022/06/24 09:37:46;;;;;;;2.50;2.30;;;29.00;99.90;;;;;;5065710;28;20489;-50
2022/06/24 09:40:22;;;;;;;4.63;2.70;;;29.20;99.90;;;;;;5057901;28;20519;-50
2022/06/24 09:43:00;;;;;;;5.00;2.50;;;29.30;99.90;;;;;;5060018;28;20457;-50
2022/06/24 09:45:42;;;;;;;13.03;3.13;;;29.40;99.90;;;;;;5063009;28;20480;-50
2022/06/24 09:48:10;;;;;;;4.77;3.00;;;29.40;99.90;;;;;;5057645;28;20525;-51
2022/06/24 09:50:37;;;;;;;5.23;2.57;;;29.20;99.90;;;;;;5060174;28;20546;-51
2022/06/24 09:53:05;;;;;;;2.23;2.13;;;29.20;99.90;;;;;;5059094;28;20555;-50
2022/06/24 09:55:32;;;;;;;7.10;2.80;;;29.30;99.90;;;;;;5061257;28;20904;-51
2022/06/24 09:58:00;;;;;;;5.70;2.20;;;29.40;99.90;;;;;;5061453;28;20546;-50
2022/06/24 10:00:41;;;;;;;3.03;2.10;;;29.60;99.90;;;;;;5062407;28;20488;-50
2022/06/24 10:03:11;;;;;;;2.67;2.47;;;29.50;99.90;;;;;;5063490;28;20448;-50
2022/06/24 10:05:40;;;;;;;2.10;1.90;;;29.50;99.90;;;;;;5061029;28;20859;-50
2022/06/24 10:08:11;;;;;;;2.63;2.40;;;29.70;99.90;;;;;;5055053;28;20465;-50
2022/06/24 10:10:42;;;;;;;5.97;2.80;;;29.70;99.90;;;;;;5060901;28;20464;-50
2022/06/24 10:13:14;;;;;;;4.40;2.50;;;29.70;99.90;;;;;;5059949;28;20545;-50
2022/06/24 10:15:41;;;;;;;8.90;2.60;;;29.40;99.90;;;;;;5061694;28;20580;-50
2022/06/24 10:18:12;;;;;;;6.77;2.07;;;29.60;99.90;;;;;;5060873;28;20480;-49
2022/06/24 10:20:42;;;;;;;3.70;2.90;;;29.70;99.90;;;;;;5062692;28;20506;-50
2022/06/24 10:23:29;;;;;;;3.27;1.90;;;29.80;99.90;;;;;;5061257;28;20464;-51
2022/06/24 10:25:56;;;;;;;2.63;2.40;;;29.90;99.90;;;;;;5062985;28;20488;-50
2022/06/24 10:28:22;;;;;;;3.20;2.23;;;29.90;99.90;;;;;;5062712;28;20493;-50
2022/06/24 10:30:58;;;;;;;4.20;1.90;;;29.90;99.90;;;;;;5064562;28;20514;-50
2022/06/24 10:33:29;;;;;;;2.27;2.07;;;30.00;99.90;;;;;;5064669;28;20468;-49
2022/06/24 10:35:58;;;;;;;6.60;2.07;;;30.00;99.90;;;;;;5066054;28;20576;-50
2022/06/24 10:38:26;;;;;;;5.60;2.00;;;30.00;99.90;;;;;;5057288;28;20867;-50
2022/06/24 10:40:53;;;;;;;3.07;2.20;;;30.10;99.90;;;;;;5062401;28;20543;-51
2022/06/24 10:43:37;;;;;;;2.80;2.07;;;30.20;99.90;;;;;;5062469;28;20540;-50
2022/06/24 10:46:19;;;;;;;3.63;1.80;;;30.20;99.90;;;;;;5065830;28;20472;-50
2022/06/24 10:49:01;;;;;;;4.10;2.23;;;30.20;99.90;;;;;;5060507;28;20452;-50
2022/06/24 10:51:31;;;;;;;2.50;2.30;;;30.30;99.90;;;;;;5063098;28;20858;-51
2022/06/24 10:54:17;;;;;;;1.87;1.70;;;30.30;99.90;;;;;;5061831;28;20469;-50
2022/06/24 10:56:46;;;;;;;7.20;1.90;;;30.30;99.90;;;;;;5061305;28;20997;-50
2022/06/24 10:59:14;;;;;;;2.80;1.80;;;30.30;99.90;;;;;;5064513;28;20464;-49
2022/06/24 11:01:42;;;;;;;2.87;1.73;;;30.40;99.90;;;;;;5062524;28;20880;-50
2022/06/24 11:04:14;;;;;;;2.33;1.70;;;30.40;99.90;;;;;;5061426;28;20481;-50
2022/06/24 11:06:40;;;;;;;2.67;1.47;;;30.50;99.90;;;;;;5067953;28;21135;-50
2022/06/24 11:09:08;;;;;;;1.73;1.63;;;30.50;99.90;;;;;;5056519;28;20489;-50
2022/06/24 11:11:35;;;;;;;1.73;1.63;;;30.40;99.90;;;;;;5070180;28;20548;-50
2022/06/24 11:14:23;;;;;;;5.40;1.87;;;30.70;99.90;;;;;;5061665;28;20840;-50
2022/06/24 11:16:50;;;;;;;3.83;1.83;;;30.40;99.90;;;;;;5060733;28;20936;-51
2022/06/24 11:19:18;;;;;;;2.73;2.20;;;30.50;99.90;;;;;;5072563;28;20490;-51
2022/06/24 11:21:48;;;;;;;4.40;1.60;;;30.50;99.90;;;;;;5067592;28;20445;-50
2022/06/24 11:24:18;;;;;;;2.20;2.00;;;30.60;99.90;;;;;;5065563;28;20513;-50
2022/06/24 11:27:06;;;;;;;1.77;1.50;;;30.80;99.90;;;;;;5060884;28;20916;-51
2022/06/24 11:29:49;;;;;;;2.17;1.70;;;30.90;99.90;;;;;;5069146;28;20979;-51
2022/06/24 11:32:16;;;;;;;8.73;2.17;;;31.00;99.90;;;;;;5070414;28;20492;-50
2022/06/24 11:34:45;;;;;;;2.97;1.43;;;31.10;99.90;;;;;;5070375;28;20477;-50
2022/06/24 11:37:12;;;;;;;3.33;1.70;;;31.30;99.90;;;;;;5069626;28;20480;-49
2022/06/24 11:39:39;;;;;;;3.40;2.17;;;31.30;99.90;;;;;;5074049;28;20483;-50
2022/06/24 11:42:07;;;;;;;4.10;1.90;;;31.10;99.90;;;;;;5072750;28;20535;-49
2022/06/24 11:44:35;;;;;;;1.70;1.60;;;31.20;99.90;;;;;;5070126;28;20568;-49
2022/06/24 11:47:02;;;;;;;17.50;1.80;;;31.20;99.90;;;;;;5062118;28;20433;-50
2022/06/24 11:49:31;;;;;;;1.50;1.40;;;31.20;99.90;;;;;;5064576;28;20475;-50
2022/06/24 11:51:59;;;;;;;4.47;1.60;;;31.30;99.90;;;;;;5065144;28;20480;-49
2022/06/24 11:54:27;;;;;;;3.93;2.37;;;31.30;99.90;;;;;;5066383;28;20594;-50
2022/06/24 11:56:54;;;;;;;10.20;1.40;;;31.30;99.90;;;;;;5069015;28;20564;-50
2022/06/24 11:59:23;;;;;;;1.93;1.83;;;31.20;99.90;;;;;;5067038;28;20515;-49
2022/06/24 12:01:51;;;;;;;2.80;1.80;;;30.80;99.90;;;;;;5064394;28;20491;-50
2022/06/24 12:04:19;;;;;;;3.27;2.10;;;30.60;99.90;;;;;;5069083;28;20481;-50
2022/06/24 12:06:47;;;;;;;8.20;1.90;;;30.80;99.90;;;;;;5062478;28;20457;-51
2022/06/24 12:09:17;;;;;;;3.67;2.00;;;31.10;99.90;;;;;;5068033;28;20496;-49
2022/06/24 12:11:44;;;;;;;3.60;1.80;;;31.10;99.90;;;;;;5066516;28;20493;-50
2022/06/24 12:14:14;;;;;;;5.83;2.13;;;31.20;99.90;;;;;;5059942;28;20539;-49
2022/06/24 12:16:58;;;;;;;2.57;1.60;;;31.00;99.90;;;;;;5059487;28;20509;-50
2022/06/24 12:19:25;;;;;;;5.57;2.30;;;30.90;99.90;;;;;;5064272;28;20452;-50
2022/06/24 12:22:03;;;;;;;5.10;1.50;;;30.80;99.90;;;;;;5060070;28;20515;-49
2022/06/24 12:24:31;;;;;;;4.17;2.20;;;30.60;99.90;;;;;;5064359;28;20544;-50
2022/06/24 12:26:58;;;;;;;4.60;2.43;;;30.60;99.90;;;;;;5063715;28;21009;-51
2022/06/24 12:29:27;;;;;;;6.43;2.10;;;30.70;99.90;;;;;;5064193;28;20917;-51
2022/06/24 12:31:54;;;;;;;4.50;1.97;;;30.80;99.90;;;;;;5069764;28;20460;-51
2022/06/24 12:34:27;;;;;;;3.10;2.23;;;30.80;99.90;;;;;;5064650;28;20484;-51
2022/06/24 12:36:58;;;;;;;4.20;1.90;;;30.80;99.90;;;;;;5061955;28;20499;-50
2022/06/24 12:39:31;;;;;;;7.33;2.33;;;30.80;99.90;;;;;;5063801;28;20540;-50
2022/06/24 12:41:58;;;;;;;5.93;2.30;;;30.90;99.90;;;;;;5063505;28;20458;-50
2022/06/24 12:44:29;;;;;;;12.80;1.90;;;31.00;99.90;;;;;;5060768;28;20628;-50
2022/06/24 12:52:35;;;;;;;2.77;2.20;;;30.90;99.90;;;;;;5061821;28;20444;-50
2022/06/24 12:55:05;;;;;;;2.60;1.80;;;31.00;99.90;;;;;;5064108;28;20559;-50
2022/06/24 12:57:31;;;;;;;2.50;2.30;;;31.20;99.90;;;;;;5065296;28;20485;-50
2022/06/24 12:59:58;;;;;;;10.77;1.80;;;31.10;99.90;;;;;;5060609;28;20544;-50
2022/06/24 13:02:25;;;;;;;3.83;2.03;;;31.10;99.90;;;;;;5062955;28;20518;-50
2022/06/24 13:04:52;;;;;;;4.93;2.13;;;31.00;99.90;;;;;;5064037;28;20564;-50
2022/06/24 13:07:19;;;;;;;4.53;1.90;;;31.20;99.90;;;;;;5064529;28;20544;-50
2022/06/24 13:09:45;;;;;;;3.43;2.10;;;31.20;99.90;;;;;;5063910;28;20540;-49